Donald, Oregon
Current Conditions -  °F | °C
As of 9:53 PM on Sunday 25 Jan 2015 (Local Time) from KUAO Reporting Station
Moderate Fog Moderate Fog  
Wind Chill: 42°   Ceiling: 200
Heat Index: 44°   Visibility: 0.25mi
Dew Point: 44°   Wind: 5mph
Humidity: 100%   Direction: 120°ESE
Pressure: 30.01"   Gusts: NA
Location:  45.22°N, 122.84°W
Report Text: KUAO 260553Z AUTO 12004KT 1/4SM FG VV002 07/07 A3001 RMK AO2 SLP163 T00670067 10089 20067 58006 $
Loading
Personal Weather Stations






























Interactive Weather Map New forecast layout! Learn more

10-Day Weather Forecast

Advertisements
Track Severe Weather on mobile